Time;durP1;ratioP1;P1;durP2;ratioP2;P2;SDS_P1;SDS_P2;PMS_P1;PMS_P2;Temp;Humidity;BMP_temperature;BMP_pressure;BME280_temperature;BME280_humidity;BME280_pressure;Samples;Min_cycle;Max_cycle;Signal;HPM_P1;HPM_P2
2023/07/12 00:02:24;;;;;;;5.95;3.28;;;18.90;99.90;;;;;;5094835;28;20044;-74
2023/07/12 00:04:50;;;;;;;8.82;3.53;;;18.90;99.90;;;;;;5076914;28;20048;-74
2023/07/12 00:07:15;;;;;;;10.07;3.90;;;18.80;99.90;;;;;;5076609;28;20491;-74
2023/07/12 00:09:41;;;;;;;7.78;3.78;;;18.80;99.90;;;;;;5076885;28;20044;-74
2023/07/12 00:12:07;;;;;;;8.20;4.15;;;18.80;99.90;;;;;;5076273;28;20126;-74
2023/07/12 00:14:33;;;;;;;8.77;3.60;;;18.80;99.90;;;;;;5076319;28;20048;-74
2023/07/12 00:16:58;;;;;;;10.82;3.67;;;18.70;99.90;;;;;;5076237;28;20052;-74
2023/07/12 00:19:24;;;;;;;8.32;3.47;;;18.70;99.90;;;;;;5076516;28;20114;-74
2023/07/12 00:21:50;;;;;;;8.10;3.70;;;18.70;99.90;;;;;;5076607;28;20072;-74
2023/07/12 00:24:16;;;;;;;9.85;3.75;;;18.70;99.90;;;;;;5076614;28;20127;-74
2023/07/12 00:26:42;;;;;;;13.85;4.50;;;18.70;99.90;;;;;;5076887;28;20048;-74
2023/07/12 00:29:08;;;;;;;7.35;3.95;;;18.70;99.90;;;;;;5094473;28;20499;-74
2023/07/12 00:31:35;;;;;;;10.45;4.03;;;18.70;99.90;;;;;;5075952;28;20046;-74
2023/07/12 00:34:01;;;;;;;9.30;4.00;;;18.70;99.90;;;;;;5076403;28;20052;-74
2023/07/12 00:36:32;;;;;;;13.50;4.38;;;18.70;99.90;;;;;;5075692;28;20400;-74
2023/07/12 00:38:59;;;;;;;11.63;4.18;;;18.60;99.90;;;;;;5076342;28;20044;-74
2023/07/12 00:41:44;;;;;;;10.63;4.30;;;18.60;99.90;;;;;;5094209;28;20101;-74
2023/07/12 00:44:33;;;;;;;8.55;3.83;;;18.60;99.90;;;;;;5075942;28;20040;-74
2023/07/12 00:46:58;;;;;;;10.10;3.78;;;18.50;99.90;;;;;;5076375;28;20066;-75
2023/07/12 00:49:25;;;;;;;11.90;4.60;;;18.50;99.90;;;;;;5094053;28;20395;-74
2023/07/12 00:52:05;;;;;;;11.23;3.63;;;18.40;99.90;;;;;;5093893;28;20496;-74
2023/07/12 00:54:57;;;;;;;15.23;4.30;;;18.40;99.90;;;;;;5076097;28;20067;-74
2023/07/12 00:57:24;;;;;;;9.45;4.30;;;18.40;99.90;;;;;;5076203;28;20056;-74
2023/07/12 00:59:52;;;;;;;9.07;4.35;;;18.40;99.90;;;;;;5076121;28;20036;-74
2023/07/12 01:02:23;;;;;;;12.00;4.22;;;18.30;99.90;;;;;;5075923;28;20383;-74
2023/07/12 01:04:50;;;;;;;10.85;3.75;;;18.30;99.90;;;;;;5075943;28;20082;-75
2023/07/12 01:07:19;;;;;;;9.75;4.53;;;18.30;99.90;;;;;;5075670;28;20105;-75
2023/07/12 01:09:44;;;;;;;12.48;4.35;;;18.30;99.90;;;;;;5093978;28;20055;-74
2023/07/12 01:12:10;;;;;;;12.40;4.60;;;18.30;99.90;;;;;;5075830;28;20126;-75
2023/07/12 01:14:38;;;;;;;13.20;4.43;;;18.30;99.90;;;;;;5093840;28;20072;-74
2023/07/12 01:17:06;;;;;;;11.43;3.80;;;18.30;99.90;;;;;;5093453;28;20123;-74
2023/07/12 01:19:33;;;;;;;10.30;4.38;;;18.30;99.90;;;;;;5075842;28;20056;-75
2023/07/12 01:21:59;;;;;;;11.70;4.20;;;18.30;99.90;;;;;;5093567;28;20047;-74
2023/07/12 01:24:28;;;;;;;13.55;4.18;;;18.30;99.90;;;;;;5075558;28;20052;-74
2023/07/12 01:27:10;;;;;;;12.43;4.20;;;18.20;99.90;;;;;;5075508;28;20091;-74
2023/07/12 01:29:36;;;;;;;11.05;4.07;;;18.20;99.90;;;;;;5075496;28;20079;-75
2023/07/12 01:32:02;;;;;;;15.32;4.82;;;18.20;99.90;;;;;;5075322;28;20074;-74
2023/07/12 01:34:29;;;;;;;13.32;3.78;;;18.20;99.90;;;;;;5075665;28;20119;-74
2023/07/12 01:36:55;;;;;;;11.75;4.40;;;18.20;99.90;;;;;;5075621;28;20051;-75
2023/07/12 01:39:20;;;;;;;11.60;4.55;;;18.10;99.90;;;;;;5075704;28;20075;-75
2023/07/12 01:41:46;;;;;;;15.45;4.55;;;18.00;99.90;;;;;;5075242;28;20184;-75
2023/07/12 01:44:12;;;;;;;14.80;4.40;;;18.10;99.90;;;;;;5075274;28;20088;-75
2023/07/12 01:46:37;;;;;;;12.65;3.90;;;18.00;99.90;;;;;;5075339;28;20048;-75
2023/07/12 01:49:03;;;;;;;12.73;4.15;;;18.00;99.90;;;;;;5078444;28;20043;-75
2023/07/12 01:51:29;;;;;;;14.45;4.07;;;18.00;99.90;;;;;;5079287;28;20098;-75
2023/07/12 01:53:55;;;;;;;13.30;3.72;;;18.00;99.90;;;;;;5097400;28;20044;-75
2023/07/12 01:56:21;;;;;;;16.50;4.57;;;18.00;99.90;;;;;;5097331;28;20036;-74
2023/07/12 01:58:47;;;;;;;13.88;4.50;;;18.00;99.90;;;;;;5079185;28;20044;-74
2023/07/12 02:01:13;;;;;;;11.80;4.55;;;18.00;99.90;;;;;;5079227;28;20102;-74
2023/07/12 02:03:38;;;;;;;15.50;5.05;;;17.90;99.90;;;;;;5097137;28;20078;-74
2023/07/12 02:06:04;;;;;;;15.27;4.72;;;17.90;99.90;;;;;;5078958;28;20040;-74
2023/07/12 02:08:30;;;;;;;13.95;4.20;;;17.90;99.90;;;;;;5097116;28;20050;-74
2023/07/12 02:10:55;;;;;;;15.23;4.63;;;17.90;99.90;;;;;;5097059;28;20366;-75
2023/07/12 02:13:22;;;;;;;11.10;4.50;;;17.90;99.90;;;;;;5079012;28;20117;-75
2023/07/12 02:15:48;;;;;;;12.85;4.45;;;17.90;99.90;;;;;;5078673;28;20040;-75
2023/07/12 02:18:14;;;;;;;14.57;4.78;;;17.90;99.90;;;;;;5078627;28;20414;-74
2023/07/12 02:20:40;;;;;;;12.60;4.20;;;17.90;99.90;;;;;;5078554;28;20534;-74
2023/07/12 02:23:07;;;;;;;14.90;5.13;;;17.90;99.90;;;;;;5104733;28;20036;-74
2023/07/12 02:25:32;;;;;;;14.98;4.32;;;17.90;99.90;;;;;;5098732;28;20044;-74
2023/07/12 02:27:58;;;;;;;15.18;4.90;;;17.80;99.90;;;;;;5098981;28;20032;-74
2023/07/12 02:30:26;;;;;;;16.55;4.57;;;17.80;99.90;;;;;;5099067;28;20069;-74
2023/07/12 02:32:52;;;;;;;17.13;4.70;;;17.80;99.90;;;;;;5098729;28;20411;-74
2023/07/12 02:35:19;;;;;;;21.50;5.10;;;17.90;99.90;;;;;;5116950;28;20418;-74
2023/07/12 02:37:46;;;;;;;17.88;5.70;;;17.80;99.90;;;;;;5116902;28;20055;-74
2023/07/12 02:40:13;;;;;;;21.65;5.35;;;17.90;99.90;;;;;;5116847;28;20177;-74
2023/07/12 02:42:38;;;;;;;16.50;5.35;;;17.80;99.90;;;;;;5116759;28;20047;-74
2023/07/12 02:45:06;;;;;;;17.52;5.25;;;17.80;99.90;;;;;;5116783;28;20043;-74
2023/07/12 02:47:31;;;;;;;19.88;5.50;;;17.80;99.90;;;;;;5098491;28;20079;-74
2023/07/12 02:49:57;;;;;;;18.60;5.80;;;17.80;99.90;;;;;;5098526;28;20128;-74
2023/07/12 02:52:23;;;;;;;18.95;5.88;;;17.80;99.90;;;;;;5098317;28;20076;-74
2023/07/12 02:54:48;;;;;;;23.98;6.22;;;17.80;99.90;;;;;;5098231;28;20051;-75
2023/07/12 02:57:15;;;;;;;22.05;5.75;;;17.80;99.90;;;;;;5098315;28;20048;-74
2023/07/12 02:59:41;;;;;;;16.35;5.43;;;17.80;99.90;;;;;;5116422;28;20524;-75
2023/07/12 03:02:09;;;;;;;22.40;6.57;;;17.80;99.90;;;;;;5098204;28;20051;-75
2023/07/12 03:04:35;;;;;;;17.85;5.95;;;17.80;99.90;;;;;;5116473;28;20039;-75
2023/07/12 03:07:01;;;;;;;23.35;6.43;;;17.70;99.90;;;;;;5116389;28;20123;-74
2023/07/12 03:09:26;;;;;;;25.13;6.53;;;17.70;99.90;;;;;;5098205;28;20047;-75
2023/07/12 03:11:52;;;;;;;21.52;6.95;;;17.70;99.90;;;;;;5116257;28;20044;-74
2023/07/12 03:14:19;;;;;;;21.85;7.10;;;17.60;99.90;;;;;;5098215;28;20058;-74
2023/07/12 03:16:45;;;;;;;23.40;6.85;;;17.70;99.90;;;;;;5115889;28;20052;-75
2023/07/12 03:19:13;;;;;;;29.58;7.22;;;17.70;99.90;;;;;;5116057;28;20131;-75
2023/07/12 03:21:38;;;;;;;21.88;6.57;;;17.60;99.90;;;;;;5098096;28;20079;-74
2023/07/12 03:24:05;;;;;;;17.55;6.72;;;17.60;99.90;;;;;;5115997;28;20501;-75
2023/07/12 03:26:30;;;;;;;24.13;7.82;;;17.60;99.90;;;;;;5115958;28;20046;-74
2023/07/12 03:28:58;;;;;;;25.55;6.88;;;17.50;99.90;;;;;;5097325;28;20032;-75
2023/07/12 03:31:25;;;;;;;23.10;5.82;;;17.60;99.90;;;;;;5115491;28;20046;-74
2023/07/12 03:33:51;;;;;;;21.80;6.93;;;17.70;99.90;;;;;;5096868;28;20107;-74
2023/07/12 03:36:18;;;;;;;24.23;6.80;;;17.60;99.90;;;;;;5114323;28;20035;-73
2023/07/12 03:38:44;;;;;;;30.52;7.40;;;17.60;99.90;;;;;;5097066;28;20055;-74
2023/07/12 03:41:14;;;;;;;28.17;7.28;;;17.60;99.90;;;;;;5115565;28;20051;-74
2023/07/12 03:43:43;;;;;;;25.42;7.50;;;17.60;99.90;;;;;;5097152;28;20055;-75
2023/07/12 03:46:16;;;;;;;28.05;7.57;;;17.60;99.90;;;;;;5097011;28;20071;-75
2023/07/12 03:48:44;;;;;;;24.98;7.22;;;17.60;99.90;;;;;;5096938;28;20451;-74
2023/07/12 03:51:12;;;;;;;27.05;7.38;;;17.60;99.90;;;;;;5096945;28;20115;-74
2023/07/12 03:53:37;;;;;;;22.80;7.18;;;17.60;99.90;;;;;;5097262;28;20111;-74
2023/07/12 03:56:04;;;;;;;29.23;7.38;;;17.50;99.90;;;;;;5097304;28;20130;-74
2023/07/12 03:58:32;;;;;;;26.67;7.15;;;17.60;99.90;;;;;;5096815;28;20414;-75
2023/07/12 04:01:03;;;;;;;25.95;7.50;;;17.60;99.90;;;;;;5096774;28;20490;-75
2023/07/12 04:03:29;;;;;;;24.33;7.45;;;17.50;99.90;;;;;;5096846;28;20051;-74
2023/07/12 04:05:54;;;;;;;27.40;7.10;;;17.50;99.90;;;;;;5097001;28;20044;-74
2023/07/12 04:08:20;;;;;;;35.20;8.43;;;17.60;99.90;;;;;;5096779;28;20459;-75
2023/07/12 04:10:50;;;;;;;30.45;8.95;;;17.60;99.90;;;;;;5114518;28;20093;-74
2023/07/12 04:13:16;;;;;;;29.35;7.93;;;17.60;99.90;;;;;;5115089;28;20046;-74
2023/07/12 04:15:43;;;;;;;30.95;8.43;;;17.60;99.90;;;;;;5096309;28;20035;-75
2023/07/12 04:18:09;;;;;;;25.15;8.57;;;17.60;99.90;;;;;;5096541;28;20060;-74
2023/07/12 04:20:38;;;;;;;31.10;9.35;;;17.60;99.90;;;;;;5096496;28;20056;-74
2023/07/12 04:23:04;;;;;;;44.70;10.70;;;17.50;99.90;;;;;;5096735;28;20043;-74
2023/07/12 04:25:30;;;;;;;31.92;10.63;;;17.50;99.90;;;;;;5096352;28;20047;-75
2023/07/12 04:27:55;;;;;;;26.75;8.35;;;17.50;99.90;;;;;;5096624;28;20039;-74
2023/07/12 04:30:21;;;;;;;34.15;8.13;;;17.50;99.90;;;;;;5096520;28;20419;-74
2023/07/12 04:32:47;;;;;;;37.95;9.73;;;17.50;99.90;;;;;;5096355;28;20044;-74
2023/07/12 04:35:13;;;;;;;37.75;8.70;;;17.60;99.90;;;;;;5096623;28;20043;-74
2023/07/12 04:37:48;;;;;;;33.00;8.70;;;17.60;99.90;;;;;;5096153;28;20051;-74
2023/07/12 04:40:14;;;;;;;31.73;8.38;;;17.50;99.90;;;;;;5096374;28;20032;-75
2023/07/12 04:42:40;;;;;;;35.63;10.02;;;17.50;99.90;;;;;;5096045;28;20517;-75
2023/07/12 04:45:09;;;;;;;33.28;9.05;;;17.60;99.90;;;;;;5096327;28;20047;-75
2023/07/12 04:47:35;;;;;;;23.63;8.93;;;17.60;99.90;;;;;;5114545;28;20050;-74
2023/07/12 04:50:03;;;;;;;34.67;9.60;;;17.60;99.90;;;;;;5114501;28;20045;-74
2023/07/12 04:52:28;;;;;;;39.78;9.13;;;17.70;99.90;;;;;;5095877;28;20055;-74
2023/07/12 04:54:59;;;;;;;31.30;8.82;;;17.70;99.90;;;;;;5096266;28;20039;-75
2023/07/12 04:57:25;;;;;;;32.58;9.55;;;17.80;99.90;;;;;;5096112;28;20051;-74
2023/07/12 04:59:51;;;;;;;34.35;9.60;;;17.90;99.90;;;;;;5114275;28;20043;-74
2023/07/12 05:02:16;;;;;;;29.70;8.77;;;17.90;99.90;;;;;;5114038;28;20035;-74
2023/07/12 05:04:43;;;;;;;35.35;9.07;;;17.90;99.90;;;;;;5095817;28;20112;-74
2023/07/12 05:07:09;;;;;;;38.28;10.23;;;18.00;99.90;;;;;;5114125;28;20122;-74
2023/07/12 05:09:36;;;;;;;32.05;8.55;;;18.00;99.90;;;;;;5095659;28;20044;-74
2023/07/12 05:12:02;;;;;;;34.22;9.85;;;18.10;99.90;;;;;;5113811;28;20130;-74
2023/07/12 05:14:28;;;;;;;36.58;10.30;;;18.20;99.90;;;;;;5096211;28;20058;-74
2023/07/12 05:16:54;;;;;;;34.58;8.63;;;18.30;99.90;;;;;;5095481;28;20051;-74
2023/07/12 05:19:20;;;;;;;32.88;8.45;;;18.40;99.90;;;;;;5095587;28;20040;-74
2023/07/12 05:21:46;;;;;;;31.48;9.65;;;18.50;99.90;;;;;;5096174;28;20050;-74
2023/07/12 05:24:12;;;;;;;29.95;8.52;;;18.50;99.90;;;;;;5117454;28;20048;-74
2023/07/12 05:26:37;;;;;;;28.67;8.52;;;18.70;99.90;;;;;;5099742;28;20096;-74
2023/07/12 05:29:03;;;;;;;23.38;8.18;;;18.80;99.90;;;;;;5118061;28;20131;-74
2023/07/12 05:31:29;;;;;;;34.97;9.10;;;18.90;99.90;;;;;;5117832;28;20063;-75
2023/07/12 05:33:54;;;;;;;36.17;10.07;;;18.80;99.90;;;;;;5117847;28;20044;-74
2023/07/12 05:36:20;;;;;;;30.23;8.98;;;18.90;99.90;;;;;;5099640;28;20048;-74
2023/07/12 05:38:46;;;;;;;34.33;9.80;;;18.90;99.90;;;;;;5099871;28;20051;-74
2023/07/12 05:41:11;;;;;;;33.08;8.75;;;18.90;99.90;;;;;;5099558;28;20051;-74
2023/07/12 05:43:39;;;;;;;31.17;8.98;;;18.80;99.90;;;;;;5099454;28;20059;-74
2023/07/12 05:46:06;;;;;;;36.65;9.50;;;18.90;99.90;;;;;;5099400;28;20097;-74
2023/07/12 05:48:31;;;;;;;33.63;8.95;;;18.80;99.90;;;;;;5117940;28;20043;-74
2023/07/12 05:50:59;;;;;;;27.73;10.18;;;18.60;99.90;;;;;;5099759;28;20371;-74
2023/07/12 05:53:25;;;;;;;37.97;9.00;;;18.60;99.90;;;;;;5117758;28;20040;-74
2023/07/12 05:55:55;;;;;;;35.85;9.13;;;18.80;99.90;;;;;;5117525;28;20092;-74
2023/07/12 05:58:21;;;;;;;44.13;10.52;;;19.00;99.90;;;;;;5099479;28;20044;-74
2023/07/12 06:00:47;;;;;;;43.80;10.40;;;19.20;99.90;;;;;;5117426;28;20403;-75
2023/07/12 06:03:12;;;;;;;33.85;9.75;;;19.20;99.90;;;;;;5117523;28;20040;-75
2023/07/12 06:05:44;;;;;;;37.55;10.10;;;19.50;99.90;;;;;;5117295;28;20052;-74
2023/07/12 06:08:10;;;;;;;29.80;9.60;;;19.50;99.90;;;;;;5099042;28;20474;-74
2023/07/12 06:10:35;;;;;;;31.88;9.38;;;19.80;99.90;;;;;;5098772;28;20049;-74
2023/07/12 06:13:01;;;;;;;34.58;9.35;;;20.00;99.90;;;;;;5098860;28;20082;-74
2023/07/12 06:15:27;;;;;;;41.50;9.80;;;20.20;99.90;;;;;;5117385;28;20036;-74
2023/07/12 06:17:53;;;;;;;30.20;8.38;;;20.30;99.90;;;;;;5098645;28;20136;-74
2023/07/12 06:20:19;;;;;;;37.45;9.77;;;20.50;99.90;;;;;;5117284;28;20394;-74
2023/07/12 06:22:45;;;;;;;39.55;9.70;;;20.50;99.90;;;;;;5099044;28;20066;-74
2023/07/12 06:25:10;;;;;;;32.63;9.63;;;20.40;99.90;;;;;;5099091;28;20428;-74
2023/07/12 06:27:36;;;;;;;37.65;10.00;;;20.00;99.90;;;;;;5098914;28;20372;-74
2023/07/12 06:30:02;;;;;;;35.33;9.13;;;19.70;99.90;;;;;;5117045;28;20043;-74
2023/07/12 06:32:31;;;;;;;29.02;8.88;;;19.50;99.90;;;;;;5116722;28;20483;-78
2023/07/12 06:34:56;;;;;;;26.25;7.30;;;19.40;99.90;;;;;;5098064;28;20071;-76
2023/07/12 06:37:22;;;;;;;27.48;7.55;;;19.30;99.90;;;;;;5115704;28;20140;-74
2023/07/12 06:39:47;;;;;;;26.73;7.32;;;19.20;99.90;;;;;;5098540;28;20131;-73
2023/07/12 06:42:13;;;;;;;29.73;8.20;;;19.20;99.90;;;;;;5116622;28;20409;-73
2023/07/12 06:44:39;;;;;;;28.77;8.18;;;19.30;99.90;;;;;;5098218;28;20104;-73
2023/07/12 06:47:04;;;;;;;36.90;9.68;;;19.50;99.90;;;;;;5098459;28;20032;-74
2023/07/12 06:49:30;;;;;;;29.45;8.48;;;19.70;99.90;;;;;;5116629;28;20453;-74
2023/07/12 06:51:57;;;;;;;37.13;9.05;;;19.90;99.90;;;;;;5097998;28;20116;-74
2023/07/12 06:54:23;;;;;;;24.40;7.57;;;20.20;99.90;;;;;;5097912;28;20050;-76
2023/07/12 06:56:49;;;;;;;34.05;8.57;;;20.50;99.90;;;;;;5116472;28;20044;-74
2023/07/12 06:59:14;;;;;;;31.35;8.77;;;20.60;99.90;;;;;;5097887;28;20085;-74
2023/07/12 07:01:40;;;;;;;28.38;8.35;;;20.50;99.90;;;;;;5097821;28;20035;-73
2023/07/12 07:04:06;;;;;;;28.15;8.23;;;20.30;99.90;;;;;;5098027;28;20092;-73
2023/07/12 07:06:31;;;;;;;32.90;8.50;;;20.50;99.90;;;;;;5097928;28;20661;-73
2023/07/12 07:08:57;;;;;;;33.00;8.85;;;20.80;99.90;;;;;;5116159;28;20046;-73
2023/07/12 07:11:23;;;;;;;22.60;7.47;;;21.00;99.90;;;;;;5097974;28;20395;-73
2023/07/12 07:13:50;;;;;;;20.48;6.20;;;20.80;99.90;;;;;;5115866;28;20082;-73
2023/07/12 07:16:20;;;;;;;25.42;8.60;;;20.90;99.90;;;;;;5094050;28;20056;-73
2023/07/12 07:18:46;;;;;;;28.15;7.93;;;20.60;99.90;;;;;;5095356;28;20399;-73
2023/07/12 07:21:12;;;;;;;28.25;7.65;;;20.50;99.90;;;;;;5094262;28;20471;-73
2023/07/12 07:23:37;;;;;;;24.15;7.93;;;20.40;99.90;;;;;;5094034;28;20039;-73
2023/07/12 07:26:05;;;;;;;28.38;7.85;;;20.20;99.90;;;;;;5095407;28;20039;-73
2023/07/12 07:28:31;;;;;;;24.10;7.75;;;20.20;99.90;;;;;;5093869;28;20055;-74
2023/07/12 07:30:57;;;;;;;33.75;7.95;;;20.10;99.90;;;;;;5094144;28;20040;-74
2023/07/12 07:33:24;;;;;;;19.98;7.18;;;19.80;99.90;;;;;;5090494;28;20137;-74
2023/07/12 07:35:50;;;;;;;23.63;5.93;;;19.60;99.90;;;;;;5073464;28;20051;-74
2023/07/12 07:38:16;;;;;;;20.83;6.63;;;19.50;99.90;;;;;;5073516;28;20040;-74
2023/07/12 07:40:42;;;;;;;21.80;6.70;;;19.40;99.90;;;;;;5073355;28;20045;-73
2023/07/12 07:43:14;;;;;;;23.38;6.90;;;19.30;99.90;;;;;;5073607;28;20068;-74
2023/07/12 07:45:41;;;;;;;17.15;6.43;;;19.20;99.90;;;;;;5072708;28;20060;-75
2023/07/12 07:48:07;;;;;;;17.63;6.82;;;19.00;99.90;;;;;;5074342;28;20131;-74
2023/07/12 07:50:32;;;;;;;18.98;7.00;;;18.90;99.90;;;;;;5073209;28;20128;-75
2023/07/12 07:52:58;;;;;;;18.35;6.28;;;19.00;99.90;;;;;;5074640;28;20051;-75
2023/07/12 07:55:26;;;;;;;20.90;6.82;;;19.00;99.90;;;;;;5074522;28;20040;-76
2023/07/12 07:57:52;;;;;;;21.38;6.65;;;19.20;99.90;;;;;;5074369;28;20052;-74
2023/07/12 08:00:18;;;;;;;22.80;7.10;;;19.60;99.90;;;;;;5064654;28;20041;-75
2023/07/12 08:02:44;;;;;;;25.38;6.75;;;19.80;99.90;;;;;;5054324;28;20037;-74
2023/07/12 08:05:11;;;;;;;19.13;7.45;;;20.20;99.90;;;;;;5054417;28;20095;-74
2023/07/12 08:07:39;;;;;;;20.42;7.00;;;20.50;99.90;;;;;;5052962;28;20519;-73
2023/07/12 08:10:07;;;;;;;24.23;7.70;;;20.70;99.90;;;;;;5053032;28;20498;-74
2023/07/12 08:12:32;;;;;;;20.77;7.15;;;20.90;99.90;;;;;;5053981;28;20462;-75
2023/07/12 08:14:58;;;;;;;18.50;6.85;;;20.70;99.90;;;;;;5052757;28;20041;-75
2023/07/12 08:17:27;;;;;;;24.63;6.55;;;20.50;99.90;;;;;;5068253;28;20059;-73
2023/07/12 08:19:54;;;;;;;22.70;6.70;;;20.40;99.90;;;;;;5074072;28;20041;-74
2023/07/12 08:22:19;;;;;;;18.73;6.85;;;20.40;99.90;;;;;;5087344;28;20063;-75
2023/07/12 08:24:46;;;;;;;19.25;6.63;;;20.30;99.90;;;;;;5069223;28;20083;-75
2023/07/12 08:27:13;;;;;;;18.42;7.00;;;20.20;99.90;;;;;;5069243;28;20081;-74
2023/07/12 08:29:39;;;;;;;16.95;6.28;;;20.30;99.90;;;;;;5056264;28;20131;-76
2023/07/12 08:32:05;;;;;;;21.30;6.68;;;20.40;99.90;;;;;;5033118;28;20053;-75
2023/07/12 08:34:34;;;;;;;20.02;6.60;;;20.30;99.90;;;;;;5070424;28;20101;-75
2023/07/12 08:37:00;;;;;;;24.75;7.68;;;20.20;99.90;;;;;;5092755;28;20092;-76
2023/07/12 08:39:26;;;;;;;23.90;8.32;;;20.00;99.90;;;;;;5077855;28;20039;-76
2023/07/12 08:41:52;;;;;;;32.28;8.70;;;19.80;99.90;;;;;;5092395;28;20055;-77
2023/07/12 08:44:18;;;;;;;22.85;8.52;;;20.00;99.90;;;;;;5092530;28;20052;-74
2023/07/12 08:46:57;;;;;;;22.08;8.68;;;20.30;99.90;;;;;;5092477;28;20047;-74
2023/07/12 08:49:25;;;;;;;23.63;8.25;;;20.60;99.90;;;;;;5092547;28;20044;-74
2023/07/12 08:51:54;;;;;;;13.70;6.00;;;20.80;99.90;;;;;;5093602;28;20040;-75
2023/07/12 08:54:23;;;;;;;19.27;6.97;;;20.90;99.90;;;;;;5092432;28;20113;-74
2023/07/12 08:57:19;;;;;;;12.75;5.40;;;21.00;99.90;;;;;;5092027;28;20052;-75
2023/07/12 08:59:57;;;;;;;12.82;5.40;;;20.90;99.90;;;;;;5093859;28;20123;-72
2023/07/12 09:02:24;;;;;;;15.88;6.40;;;20.80;99.90;;;;;;5093516;28;20043;-73
2023/07/12 09:04:52;;;;;;;13.52;5.55;;;20.60;99.90;;;;;;5093793;28;20174;-73
2023/07/12 09:07:28;;;;;;;16.45;5.70;;;20.70;99.90;;;;;;5093282;28;20399;-73
2023/07/12 09:09:56;;;;;;;13.77;4.78;;;20.80;99.90;;;;;;5092256;28;20044;-79
2023/07/12 09:12:25;;;;;;;13.77;5.43;;;20.90;99.90;;;;;;5092062;28;20127;-73
2023/07/12 09:15:01;;;;;;;11.75;5.30;;;21.00;99.90;;;;;;5093712;28;20042;-74
2023/07/12 09:17:34;;;;;;;14.75;5.07;;;20.90;99.90;;;;;;5091942;28;20056;-76
2023/07/12 09:20:00;;;;;;;14.57;5.45;;;21.00;99.90;;;;;;5093302;28;20044;-78
2023/07/12 09:22:29;;;;;;;11.82;5.82;;;20.80;99.90;;;;;;5092031;28;20040;-74
2023/07/12 09:24:56;;;;;;;12.68;5.35;;;21.00;99.90;;;;;;5093610;28;20032;-74
2023/07/12 09:27:27;;;;;;;13.30;4.80;;;21.30;99.90;;;;;;5093532;28;20036;-73
2023/07/12 09:30:17;;;;;;;11.23;5.15;;;21.20;99.90;;;;;;5093543;28;20048;-74
2023/07/12 09:32:43;;;;;;;15.35;6.13;;;21.40;99.90;;;;;;5090608;28;20487;-75
2023/07/12 09:35:32;;;;;;;14.98;6.38;;;21.60;99.90;;;;;;5091104;28;20047;-76
2023/07/12 09:38:01;;;;;;;17.13;6.88;;;21.60;99.90;;;;;;5088204;28;20040;-76
2023/07/12 09:40:39;;;;;;;14.57;5.47;;;21.90;99.90;;;;;;5087946;28;20032;-79
2023/07/12 09:43:15;;;;;;;12.52;6.13;;;22.00;99.90;;;;;;5107238;28;20044;-81
2023/07/12 09:46:03;;;;;;;14.23;6.00;;;21.90;99.90;;;;;;5072911;28;20045;-79
2023/07/12 09:48:53;;;;;;;13.85;6.18;;;21.60;99.90;;;;;;5072788;28;20049;-78
2023/07/12 09:51:39;;;;;;;13.02;5.90;;;21.50;99.90;;;;;;5088179;28;20040;-77
2023/07/12 09:54:18;;;;;;;14.23;5.82;;;21.50;99.90;;;;;;5071528;28;20056;-76
2023/07/12 09:56:53;;;;;;;21.17;6.50;;;21.30;99.90;;;;;;5072982;28;20044;-78
2023/07/12 09:59:41;;;;;;;12.00;4.80;;;21.50;99.90;;;;;;5071319;28;20053;-77
2023/07/12 10:02:37;;;;;;;15.85;4.50;;;21.50;99.90;;;;;;5071412;28;20439;-78
2023/07/12 10:05:08;;;;;;;13.52;4.93;;;21.40;99.90;;;;;;5087559;28;20048;-77
2023/07/12 10:07:57;;;;;;;16.48;6.40;;;21.40;99.90;;;;;;5091762;28;20131;-77
2023/07/12 10:10:32;;;;;;;15.45;5.72;;;21.70;99.90;;;;;;5094705;28;20380;-77
2023/07/12 10:13:12;;;;;;;12.90;4.65;;;21.60;99.90;;;;;;5095088;28;20060;-78
2023/07/12 10:15:39;;;;;;;14.57;4.25;;;21.50;99.90;;;;;;5096220;28;20052;-77
2023/07/12 10:18:05;;;;;;;9.07;4.18;;;21.60;99.90;;;;;;5107942;28;20055;-76
2023/07/12 10:20:32;;;;;;;13.43;4.85;;;21.90;99.90;;;;;;5097642;28;20145;-71
2023/07/12 10:22:58;;;;;;;13.70;4.88;;;21.70;99.90;;;;;;5116057;28;20089;-74
2023/07/12 10:25:30;;;;;;;16.52;4.90;;;21.60;99.90;;;;;;5098447;28;20128;-74
2023/07/12 10:28:12;;;;;;;12.65;4.45;;;21.30;99.90;;;;;;5117023;28;20173;-73
2023/07/12 10:30:39;;;;;;;10.13;3.40;;;21.20;99.90;;;;;;5098739;28;20105;-74
2023/07/12 10:33:24;;;;;;;14.73;3.05;;;21.20;99.90;;;;;;5098291;28;20521;-74
2023/07/12 10:36:02;;;;;;;8.10;3.28;;;21.10;99.90;;;;;;5098649;28;20063;-75
2023/07/12 10:38:28;;;;;;;11.45;3.55;;;21.00;99.90;;;;;;5098227;28;20050;-74
2023/07/12 10:41:01;;;;;;;8.90;3.03;;;21.20;99.90;;;;;;5115981;28;20092;-74
2023/07/12 10:43:31;;;;;;;;;;;21.30;99.90;;;;;;5099081;28;20059;-74
2023/07/12 10:52:07;;;;;;;9.45;3.25;;;21.40;99.90;;;;;;5024874;22;20063;-74
2023/07/12 11:26:59;;;;;;;5.60;1.80;;;22.80;99.90;;;;;;4578134;22;20466;-74
2023/07/12 11:29:47;;;;;;;9.30;2.72;;;22.70;99.90;;;;;;5097419;28;20056;-73
2023/07/12 11:33:07;;;;;;;6.82;1.80;;;22.80;99.90;;;;;;5115646;28;20055;-73
2023/07/12 11:36:13;;;;;;;7.63;2.83;;;22.70;99.90;;;;;;5097205;28;20047;-73
2023/07/12 11:39:34;;;;;;;;;;;;;;;;;;;;;
2023/07/12 11:42:49;;;;;;;11.68;3.58;;;22.40;99.90;;;;;;5103607;28;20108;-73
2023/07/12 11:49:29;;;;;;;7.22;2.00;;;22.50;99.90;;;;;;5032731;28;20509;-74
2023/07/12 11:52:42;;;;;;;8.95;2.22;;;22.70;99.90;;;;;;5032201;28;20050;-73
2023/07/12 11:55:55;;;;;;;7.32;2.10;;;22.80;99.90;;;;;;5026777;28;20049;-74
2023/07/12 11:59:21;;;;;;;6.15;2.53;;;23.00;99.90;;;;;;4938309;29;20134;-73
2023/07/12 12:02:23;;;;;;;9.52;2.25;;;22.80;99.90;;;;;;4990979;28;20045;-74
2023/07/12 12:04:57;;;;;;;12.77;2.50;;;22.80;99.90;;;;;;4992907;28;20053;-74
2023/07/12 12:07:37;;;;;;;5.45;1.70;;;22.80;99.90;;;;;;5041489;28;20056;-74
2023/07/12 12:10:05;;;;;;;5.50;1.77;;;22.90;99.90;;;;;;5096646;28;20043;-73
2023/07/12 12:12:35;;;;;;;3.70;1.40;;;23.20;99.90;;;;;;5096535;28;20039;-74
2023/07/12 12:15:03;;;;;;;7.35;1.75;;;23.10;99.90;;;;;;5096535;28;20097;-73
2023/07/12 12:17:36;;;;;;;7.63;1.45;;;23.00;99.90;;;;;;5096574;28;20436;-73
2023/07/12 12:20:22;;;;;;;4.53;1.80;;;23.00;99.90;;;;;;5096619;28;20130;-74
2023/07/12 12:23:13;;;;;;;11.65;2.88;;;22.80;99.90;;;;;;5096482;28;20052;-74
2023/07/12 12:25:47;;;;;;;8.93;2.20;;;22.70;99.90;;;;;;5114531;28;20050;-74
2023/07/12 12:28:33;;;;;;;4.78;2.22;;;22.80;99.90;;;;;;5114468;28;20402;-74
2023/07/12 12:31:03;;;;;;;9.18;1.58;;;22.70;99.90;;;;;;5096288;28;20074;-73
2023/07/12 12:33:29;;;;;;;5.10;1.60;;;22.90;99.90;;;;;;5095849;28;20044;-74
2023/07/12 12:36:01;;;;;;;7.95;1.58;;;22.90;99.90;;;;;;5096414;28;20062;-74
2023/07/12 12:38:31;;;;;;;6.38;1.90;;;22.80;99.90;;;;;;5114434;28;20032;-73
2023/07/12 12:41:17;;;;;;;6.13;1.55;;;22.80;99.90;;;;;;5096328;28;20539;-74
2023/07/12 12:44:14;;;;;;;9.43;1.80;;;22.80;99.90;;;;;;5095864;28;20058;-74
2023/07/12 12:57:03;;;;;;;8.40;2.20;;;22.60;99.90;;;;;;5095744;28;20108;-74
2023/07/12 12:59:45;;;;;;;7.45;1.98;;;22.60;99.90;;;;;;5092930;28;20487;-73
2023/07/12 13:03:19;;;;;;;8.10;2.13;;;22.40;99.90;;;;;;5096060;28;20066;-74
2023/07/12 13:05:57;;;;;;;10.10;2.22;;;22.30;99.90;;;;;;4994940;28;20052;-73
2023/07/12 13:08:26;;;;;;;8.45;2.20;;;22.30;99.90;;;;;;4995480;28;20054;-74
2023/07/12 13:11:17;;;;;;;;;;;;;;;;;;;;;
2023/07/12 13:14:39;;;;;;;7.40;1.90;;;21.90;99.90;;;;;;5105678;28;20063;-74
2023/07/12 13:17:32;;;;;;;6.13;1.90;;;21.90;99.90;;;;;;5095477;28;20046;-74
2023/07/12 13:20:25;;;;;;;8.95;2.55;;;22.00;99.90;;;;;;5095960;28;20070;-73
2023/07/12 13:26:28;;;;;;;7.13;2.65;;;22.20;99.90;;;;;;5113602;28;20097;-74
2023/07/12 13:42:39;;;;;;;10.38;3.00;;;22.20;99.90;;;;;;5092357;28;20139;-74
2023/07/12 13:45:31;;;;;;;7.95;2.50;;;22.20;99.90;;;;;;5031738;28;20550;-74
2023/07/12 13:48:37;;;;;;;8.35;2.78;;;22.20;99.90;;;;;;5055066;28;20041;-74
2023/07/12 13:51:36;;;;;;;6.88;2.50;;;22.10;99.90;;;;;;4957077;28;20564;-74
2023/07/12 14:05:36;;;;;;;5.32;2.47;;;22.60;99.90;;;;;;4880502;29;20212;-73
2023/07/12 14:08:02;;;;;;;7.93;2.58;;;22.50;99.90;;;;;;4880902;29;20089;-73
2023/07/12 14:11:27;;;;;;;;;;;;;;;;;;;;;
2023/07/12 14:18:19;;;;;;;9.73;3.00;;;21.80;99.90;;;;;;4898945;29;20040;-74
2023/07/12 14:36:49;;;;;;;6.90;2.90;;;21.90;99.90;;;;;;4879894;29;20044;-73
2023/07/12 14:47:35;;;;;;;8.45;3.08;;;22.30;99.90;;;;;;4879942;29;20044;-74
2023/07/12 14:50:26;;;;;;;;;;;22.20;99.90;;;;;;4934546;29;20142;-74
2023/07/12 15:23:38;;;;;;;7.68;3.00;;;22.50;99.90;;;;;;4764625;30;20046;-74
2023/07/12 15:27:05;;;;;;;5.40;2.88;;;22.50;99.90;;;;;;4838603;29;20060;-74